sensor_id;sensor_type;location;lat;lon;timestamp;pressure;altitude;pressure_sealevel;temperature;humidity
35248;BME280;21380;52.194;20.520;2024-01-11T00:00:33;101407.81;;;9.41;35.38
35248;BME280;21380;52.194;20.520;2024-01-11T00:03:18;101386.53;;;9.31;35.30
35248;BME280;21380;52.194;20.520;2024-01-11T00:05:44;101399.78;;;9.37;34.98
35248;BME280;21380;52.194;20.520;2024-01-11T00:08:11;101404.16;;;9.38;35.41
35248;BME280;21380;52.194;20.520;2024-01-11T00:10:37;101392.78;;;9.34;35.45
35248;BME280;21380;52.194;20.520;2024-01-11T00:13:03;101372.97;;;9.33;35.01
35248;BME280;21380;52.194;20.520;2024-01-11T00:15:29;101379.19;;;9.37;36.00
35248;BME280;21380;52.194;20.520;2024-01-11T00:17:55;101369.69;;;9.36;35.87
35248;BME280;21380;52.194;20.520;2024-01-11T00:20:21;101359.28;;;9.34;35.18
35248;BME280;21380;52.194;20.520;2024-01-11T00:22:47;101357.69;;;9.36;35.41
35248;BME280;21380;52.194;20.520;2024-01-11T00:25:13;101348.09;;;9.34;35.41
35248;BME280;21380;52.194;20.520;2024-01-11T00:27:42;101350.06;;;9.38;35.59
35248;BME280;21380;52.194;20.520;2024-01-11T00:30:08;101362.03;;;9.37;35.74
35248;BME280;21380;52.194;20.520;2024-01-11T00:32:34;101366.31;;;9.37;36.00
35248;BME280;21380;52.194;20.520;2024-01-11T00:35:00;101366.22;;;9.35;35.34
35248;BME280;21380;52.194;20.520;2024-01-11T00:37:26;101361.09;;;9.35;35.98
35248;BME280;21380;52.194;20.520;2024-01-11T00:39:51;101368.69;;;9.34;35.35
35248;BME280;21380;52.194;20.520;2024-01-11T00:42:17;101368.69;;;9.34;35.76
35248;BME280;21380;52.194;20.520;2024-01-11T00:44:43;101373.84;;;9.34;35.76
35248;BME280;21380;52.194;20.520;2024-01-11T00:47:11;101372.16;;;9.34;35.18
35248;BME280;21380;52.194;20.520;2024-01-11T00:49:36;101381.56;;;9.34;35.96
35248;BME280;21380;52.194;20.520;2024-01-11T00:52:03;101377.31;;;9.34;35.67
35248;BME280;21380;52.194;20.520;2024-01-11T00:54:29;101357.59;;;9.35;35.74
35248;BME280;21380;52.194;20.520;2024-01-11T00:56:55;101379.09;;;9.35;36.05
35248;BME280;21380;52.194;20.520;2024-01-11T00:59:21;101388.50;;;9.35;35.38
35248;BME280;21380;52.194;20.520;2024-01-11T01:01:48;101399.78;;;9.37;36.05
35248;BME280;21380;52.194;20.520;2024-01-11T01:04:14;101396.31;;;9.36;35.89
35248;BME280;21380;52.194;20.520;2024-01-11T01:06:41;101383.25;;;9.33;35.30
35248;BME280;21380;52.194;20.520;2024-01-11T01:09:07;101378.91;;;9.32;35.65
35248;BME280;21380;52.194;20.520;2024-01-11T01:11:33;101376.53;;;9.35;35.95
35248;BME280;21380;52.194;20.520;2024-01-11T01:13:58;101353.22;;;9.34;35.84
35248;BME280;21380;52.194;20.520;2024-01-11T01:16:24;101335.66;;;9.27;35.63
35248;BME280;21380;52.194;20.520;2024-01-11T01:18:50;101353.22;;;9.34;35.72
35248;BME280;21380;52.194;20.520;2024-01-11T01:21:16;101364.16;;;9.30;35.90
35248;BME280;21380;52.194;20.520;2024-01-11T01:23:42;101372.09;;;9.33;35.83
35248;BME280;21380;52.194;20.520;2024-01-11T01:26:08;101370.31;;;9.32;36.14
35248;BME280;21380;52.194;20.520;2024-01-11T01:28:34;101362.38;;;9.29;35.96
35248;BME280;21380;52.194;20.520;2024-01-11T01:31:00;101363.38;;;9.31;35.23
35248;BME280;21380;52.194;20.520;2024-01-11T01:33:26;101360.97;;;9.34;35.72
35248;BME280;21380;52.194;20.520;2024-01-11T01:35:52;101363.44;;;9.32;35.94
35248;BME280;21380;52.194;20.520;2024-01-11T01:38:17;101344.56;;;9.32;35.77
35248;BME280;21380;52.194;20.520;2024-01-11T01:40:44;101354.16;;;9.34;35.61
35248;BME280;21380;52.194;20.520;2024-01-11T01:43:09;101351.19;;;9.28;35.66
35248;BME280;21380;52.194;20.520;2024-01-11T01:45:36;101353.16;;;9.32;35.62
35248;BME280;21380;52.194;20.520;2024-01-11T01:48:02;101372.78;;;9.30;35.66
35248;BME280;21380;52.194;20.520;2024-01-11T01:50:28;101379.00;;;9.34;35.80
35248;BME280;21380;52.194;20.520;2024-01-11T01:52:55;101354.06;;;9.33;36.27
35248;BME280;21380;52.194;20.520;2024-01-11T01:55:22;101340.19;;;9.31;36.07
35248;BME280;21380;52.194;20.520;2024-01-11T01:57:48;101358.13;;;9.29;35.32
35248;BME280;21380;52.194;20.520;2024-01-11T02:00:16;101351.47;;;9.33;35.74
35248;BME280;21380;52.194;20.520;2024-01-11T02:02:46;101341.97;;;9.32;36.02
35248;BME280;21380;52.194;20.520;2024-01-11T02:05:16;101327.22;;;9.29;35.92
35248;BME280;21380;52.194;20.520;2024-01-11T02:07:44;101346.34;;;9.33;35.72
35248;BME280;21380;52.194;20.520;2024-01-11T02:10:10;101348.91;;;9.33;35.68
35248;BME280;21380;52.194;20.520;2024-01-11T02:12:36;101352.34;;;9.33;35.91
35248;BME280;21380;52.194;20.520;2024-01-11T02:15:04;101355.09;;;9.36;36.01
35248;BME280;21380;52.194;20.520;2024-01-11T02:17:30;101349.38;;;9.40;35.85
35248;BME280;21380;52.194;20.520;2024-01-11T02:19:57;101360.47;;;9.39;35.34
35248;BME280;21380;52.194;20.520;2024-01-11T02:22:32;101363.03;;;9.39;35.71
35248;BME280;21380;52.194;20.520;2024-01-11T02:25:00;101337.19;;;9.38;35.50
35248;BME280;21380;52.194;20.520;2024-01-11T02:27:26;101332.75;;;9.35;35.72
35248;BME280;21380;52.194;20.520;2024-01-11T02:29:52;101333.00;;;9.40;35.72
35248;BME280;21380;52.194;20.520;2024-01-11T02:32:18;101331.84;;;9.35;35.09
35248;BME280;21380;52.194;20.520;2024-01-11T02:34:44;101342.34;;;9.38;35.90
35248;BME280;21380;52.194;20.520;2024-01-11T02:37:10;101329.56;;;9.39;35.37
35248;BME280;21380;52.194;20.520;2024-01-11T02:39:37;101331.34;;;9.40;35.86
35248;BME280;21380;52.194;20.520;2024-01-11T02:42:03;101340.84;;;9.41;35.32
35248;BME280;21380;52.194;20.520;2024-01-11T02:44:29;101338.16;;;9.40;35.23
35248;BME280;21380;52.194;20.520;2024-01-11T02:46:55;101350.94;;;9.38;35.53
35248;BME280;21380;52.194;20.520;2024-01-11T02:49:21;101332.13;;;9.39;35.37
35248;BME280;21380;52.194;20.520;2024-01-11T02:51:47;101320.03;;;9.38;35.28
35248;BME280;21380;52.194;20.520;2024-01-11T02:54:13;101311.44;;;9.38;35.71
35248;BME280;21380;52.194;20.520;2024-01-11T02:56:38;101301.94;;;9.37;35.34
35248;BME280;21380;52.194;20.520;2024-01-11T02:59:04;101315.59;;;9.36;35.73
35248;BME280;21380;52.194;20.520;2024-01-11T03:01:30;101309.22;;;9.29;35.93
35248;BME280;21380;52.194;20.520;2024-01-11T03:03:57;101319.06;;;9.36;35.53
35248;BME280;21380;52.194;20.520;2024-01-11T03:06:23;101334.63;;;9.38;35.69
35248;BME280;21380;52.194;20.520;2024-01-11T03:08:49;101328.31;;;9.33;35.92
35248;BME280;21380;52.194;20.520;2024-01-11T03:11:15;101330.25;;;9.37;36.02
35248;BME280;21380;52.194;20.520;2024-01-11T03:13:42;101309.56;;;9.35;35.70
35248;BME280;21380;52.194;20.520;2024-01-11T03:16:08;101313.56;;;9.30;36.00
35248;BME280;21380;52.194;20.520;2024-01-11T03:18:34;101310.28;;;9.33;35.68
35248;BME280;21380;52.194;20.520;2024-01-11T03:21:00;101323.25;;;9.34;35.45
35248;BME280;21380;52.194;20.520;2024-01-11T03:23:26;101325.53;;;9.30;35.95
35248;BME280;21380;52.194;20.520;2024-01-11T03:25:52;101317.88;;;9.31;36.08
35248;BME280;21380;52.194;20.520;2024-01-11T03:28:18;101302.66;;;9.34;36.04
35248;BME280;21380;52.194;20.520;2024-01-11T03:30:44;101291.25;;;9.31;35.93
35248;BME280;21380;52.194;20.520;2024-01-11T03:33:10;101317.31;;;9.35;36.15
35248;BME280;21380;52.194;20.520;2024-01-11T03:35:35;101304.22;;;9.32;35.84
35248;BME280;21380;52.194;20.520;2024-01-11T03:38:04;101277.41;;;9.29;36.18
35248;BME280;21380;52.194;20.520;2024-01-11T03:40:34;101286.13;;;9.31;35.91
35248;BME280;21380;52.194;20.520;2024-01-11T03:43:00;101266.41;;;9.31;35.93
35248;BME280;21380;52.194;20.520;2024-01-11T03:45:25;101263.94;;;9.33;35.82
35248;BME280;21380;52.194;20.520;2024-01-11T03:47:51;101262.16;;;9.32;36.40
35248;BME280;21380;52.194;20.520;2024-01-11T03:50:17;101255.22;;;9.31;36.27
35248;BME280;21380;52.194;20.520;2024-01-11T03:52:45;101250.78;;;9.28;36.22
35248;BME280;21380;52.194;20.520;2024-01-11T03:55:11;101247.56;;;9.32;36.59
35248;BME280;21380;52.194;20.520;2024-01-11T03:57:37;101234.69;;;9.32;36.50
35248;BME280;21380;52.194;20.520;2024-01-11T04:00:04;101220.75;;;9.29;36.23
35248;BME280;21380;52.194;20.520;2024-01-11T04:02:31;101202.56;;;9.25;36.07
35248;BME280;21380;52.194;20.520;2024-01-11T04:04:57;101187.47;;;9.32;35.94
35248;BME280;21380;52.194;20.520;2024-01-11T04:07:23;101184.91;;;9.32;36.14
35248;BME280;21380;52.194;20.520;2024-01-11T04:09:49;101223.53;;;9.32;36.27
35248;BME280;21380;52.194;20.520;2024-01-11T04:12:15;101239.84;;;9.32;36.40
35248;BME280;21380;52.194;20.520;2024-01-11T04:14:41;101239.84;;;9.32;36.75
35248;BME280;21380;52.194;20.520;2024-01-11T04:17:07;101222.72;;;9.33;36.50
35248;BME280;21380;52.194;20.520;2024-01-11T04:19:33;101225.19;;;9.31;36.55
35248;BME280;21380;52.194;20.520;2024-01-11T04:21:59;101230.47;;;9.33;37.02
35248;BME280;21380;52.194;20.520;2024-01-11T04:24:24;101219.16;;;9.31;36.48
35248;BME280;21380;52.194;20.520;2024-01-11T04:26:50;101205.50;;;9.32;36.61
35248;BME280;21380;52.194;20.520;2024-01-11T04:29:16;101214.09;;;9.32;36.72
35248;BME280;21380;52.194;20.520;2024-01-11T04:31:42;101217.38;;;9.30;36.54
35248;BME280;21380;52.194;20.520;2024-01-11T04:34:08;101220.31;;;9.36;36.79
35248;BME280;21380;52.194;20.520;2024-01-11T04:36:37;101214.38;;;9.37;36.20
35248;BME280;21380;52.194;20.520;2024-01-11T04:39:03;101221.31;;;9.38;36.95
35248;BME280;21380;52.194;20.520;2024-01-11T04:41:29;101227.41;;;9.40;36.83
35248;BME280;21380;52.194;20.520;2024-01-11T04:43:54;101220.41;;;9.37;36.48
35248;BME280;21380;52.194;20.520;2024-01-11T04:46:21;101224.03;;;9.41;37.04
35248;BME280;21380;52.194;20.520;2024-01-11T04:48:48;101224.03;;;9.41;36.41
35248;BME280;21380;52.194;20.520;2024-01-11T04:51:16;101206.72;;;9.38;36.80
35248;BME280;21380;52.194;20.520;2024-01-11T04:53:43;101224.97;;;9.41;36.63
35248;BME280;21380;52.194;20.520;2024-01-11T04:56:11;101216.16;;;9.38;36.55
35248;BME280;21380;52.194;20.520;2024-01-11T04:58:39;101226.63;;;9.41;37.00
35248;BME280;21380;52.194;20.520;2024-01-11T05:01:06;101232.50;;;9.38;36.68
35248;BME280;21380;52.194;20.520;2024-01-11T05:03:32;101221.31;;;9.38;36.57
35248;BME280;21380;52.194;20.520;2024-01-11T05:05:59;101204.72;;;9.33;36.68
35248;BME280;21380;52.194;20.520;2024-01-11T05:08:27;101214.47;;;9.38;37.15
35248;BME280;21380;52.194;20.520;2024-01-11T05:10:53;101207.38;;;9.34;37.06
35248;BME280;21380;52.194;20.520;2024-01-11T05:13:19;101214.38;;;9.37;36.85
35248;BME280;21380;52.194;20.520;2024-01-11T05:15:45;101205.84;;;9.38;36.94
35248;BME280;21380;52.194;20.520;2024-01-11T05:18:12;101196.44;;;9.38;37.42
35248;BME280;21380;52.194;20.520;2024-01-11T05:20:38;101197.94;;;9.35;37.17
35248;BME280;21380;52.194;20.520;2024-01-11T05:23:04;101193.78;;;9.37;37.38
35248;BME280;21380;52.194;20.520;2024-01-11T05:25:31;101192.19;;;9.39;37.01
35248;BME280;21380;52.194;20.520;2024-01-11T05:28:00;101187.84;;;9.38;37.16
35248;BME280;21380;52.194;20.520;2024-01-11T05:30:26;101184.47;;;9.39;37.26
35248;BME280;21380;52.194;20.520;2024-01-11T05:32:54;101183.63;;;9.40;37.45
35248;BME280;21380;52.194;20.520;2024-01-11T05:35:20;101174.25;;;9.40;37.23
35248;BME280;21380;52.194;20.520;2024-01-11T05:37:47;101174.97;;;9.38;37.20
35248;BME280;21380;52.194;20.520;2024-01-11T05:40:13;101172.47;;;9.39;37.27
35248;BME280;21380;52.194;20.520;2024-01-11T05:42:39;101173.25;;;9.38;37.26
35248;BME280;21380;52.194;20.520;2024-01-11T05:45:06;101140.13;;;9.30;37.49
35248;BME280;21380;52.194;20.520;2024-01-11T05:47:32;101164.81;;;9.41;37.23
35248;BME280;21380;52.194;20.520;2024-01-11T05:49:58;101163.75;;;9.37;37.37
35248;BME280;21380;52.194;20.520;2024-01-11T05:52:23;101167.31;;;9.39;37.51
35248;BME280;21380;52.194;20.520;2024-01-11T05:54:49;101166.50;;;9.40;36.91
35248;BME280;21380;52.194;20.520;2024-01-11T05:57:15;101166.50;;;9.40;37.40
35248;BME280;21380;52.194;20.520;2024-01-11T05:59:46;101157.00;;;9.39;37.64
35248;BME280;21380;52.194;20.520;2024-01-11T06:02:12;101154.59;;;9.43;37.31
35248;BME280;21380;52.194;20.520;2024-01-11T06:04:39;101142.63;;;9.43;37.18
35248;BME280;21380;52.194;20.520;2024-01-11T06:07:05;101134.97;;;9.45;37.76
35248;BME280;21380;52.194;20.520;2024-01-11T06:09:31;101134.09;;;9.44;37.82
35248;BME280;21380;52.194;20.520;2024-01-11T06:11:57;101125.38;;;9.42;37.42
35248;BME280;21380;52.194;20.520;2024-01-11T06:14:23;101129.75;;;9.43;37.30
35248;BME280;21380;52.194;20.520;2024-01-11T06:16:49;101132.47;;;9.46;37.06
35248;BME280;21380;52.194;20.520;2024-01-11T06:19:15;101125.53;;;9.45;37.51
35248;BME280;21380;52.194;20.520;2024-01-11T06:21:41;101128.13;;;9.45;37.62
35248;BME280;21380;52.194;20.520;2024-01-11T06:24:07;101111.72;;;9.43;37.61
35248;BME280;21380;52.194;20.520;2024-01-11T06:26:33;101114.09;;;9.40;37.52
35248;BME280;21380;52.194;20.520;2024-01-11T06:28:59;101116.06;;;9.44;37.67
35248;BME280;21380;52.194;20.520;2024-01-11T06:31:25;101122.81;;;9.42;37.16
35248;BME280;21380;52.194;20.520;2024-01-11T06:33:51;101120.25;;;9.42;37.23
35248;BME280;21380;52.194;20.520;2024-01-11T06:36:17;101116.88;;;9.43;37.76
35248;BME280;21380;52.194;20.520;2024-01-11T06:38:43;101117.59;;;9.40;37.66
35248;BME280;21380;52.194;20.520;2024-01-11T06:41:09;101106.50;;;9.41;37.99
35248;BME280;21380;52.194;20.520;2024-01-11T06:43:35;101112.50;;;9.42;37.31
35248;BME280;21380;52.194;20.520;2024-01-11T06:46:05;101114.28;;;9.43;37.52
35248;BME280;21380;52.194;20.520;2024-01-11T06:48:32;101093.44;;;9.38;37.70
35248;BME280;21380;52.194;20.520;2024-01-11T06:50:57;101091.91;;;9.42;37.73
35248;BME280;21380;52.194;20.520;2024-01-11T06:53:23;101094.56;;;9.44;37.73
35248;BME280;21380;52.194;20.520;2024-01-11T06:55:49;101093.69;;;9.43;38.21
35248;BME280;21380;52.194;20.520;2024-01-11T06:58:20;101091.19;;;9.45;37.91
35248;BME280;21380;52.194;20.520;2024-01-11T07:00:49;101072.28;;;9.44;37.69
35248;BME280;21380;52.194;20.520;2024-01-11T07:03:15;101080.03;;;9.44;38.24
35248;BME280;21380;52.194;20.520;2024-01-11T07:05:41;101094.63;;;9.45;37.42
35248;BME280;21380;52.194;20.520;2024-01-11T07:08:07;101101.50;;;9.45;38.38
35248;BME280;21380;52.194;20.520;2024-01-11T07:10:33;101101.56;;;9.46;37.93
35248;BME280;21380;52.194;20.520;2024-01-11T07:12:59;101088.88;;;9.49;38.12
35248;BME280;21380;52.194;20.520;2024-01-11T07:15:25;101073.44;;;9.49;37.60
35248;BME280;21380;52.194;20.520;2024-01-11T07:17:51;101072.63;;;9.50;38.34
35248;BME280;21380;52.194;20.520;2024-01-11T07:20:19;101080.25;;;9.49;38.00
35248;BME280;21380;52.194;20.520;2024-01-11T07:22:45;101075.94;;;9.48;37.88
35248;BME280;21380;52.194;20.520;2024-01-11T07:25:11;101083.72;;;9.49;37.62
35248;BME280;21380;52.194;20.520;2024-01-11T07:27:37;101095.88;;;9.52;37.97
35248;BME280;21380;52.194;20.520;2024-01-11T07:30:03;101082.09;;;9.51;38.29
35248;BME280;21380;52.194;20.520;2024-01-11T07:32:32;101085.41;;;9.49;37.62
35248;BME280;21380;52.194;20.520;2024-01-11T07:34:57;101091.47;;;9.49;37.96
35248;BME280;21380;52.194;20.520;2024-01-11T07:37:23;101085.66;;;9.53;38.23
35248;BME280;21380;52.194;20.520;2024-01-11T07:39:51;101081.16;;;9.49;38.26
35248;BME280;21380;52.194;20.520;2024-01-11T07:42:17;101081.31;;;9.52;38.04
35248;BME280;21380;52.194;20.520;2024-01-11T07:44:43;101072.78;;;9.53;37.75
35248;BME280;21380;52.194;20.520;2024-01-11T07:47:09;101086.47;;;9.52;38.25
35248;BME280;21380;52.194;20.520;2024-01-11T07:49:34;101082.22;;;9.53;38.14
35248;BME280;21380;52.194;20.520;2024-01-11T07:52:00;101075.38;;;9.53;38.44
35248;BME280;21380;52.194;20.520;2024-01-11T07:54:26;101078.81;;;9.54;38.39
35248;BME280;21380;52.194;20.520;2024-01-11T07:56:52;101065.06;;;9.53;38.17
35248;BME280;21380;52.194;20.520;2024-01-11T07:59:18;101078.81;;;9.54;38.45
35248;BME280;21380;52.194;20.520;2024-01-11T08:01:44;101084.06;;;9.55;38.70
35248;BME280;21380;52.194;20.520;2024-01-11T08:04:10;101078.91;;;9.55;38.58
35248;BME280;21380;52.194;20.520;2024-01-11T08:06:36;101074.56;;;9.54;38.35
35248;BME280;21380;52.194;20.520;2024-01-11T08:09:03;101088.97;;;9.51;38.56
35248;BME280;21380;52.194;20.520;2024-01-11T08:11:30;101085.59;;;9.52;38.37
35248;BME280;21380;52.194;20.520;2024-01-11T08:13:57;101091.53;;;9.51;38.52
35248;BME280;21380;52.194;20.520;2024-01-11T08:16:23;101100.31;;;9.54;38.49
35248;BME280;21380;52.194;20.520;2024-01-11T08:18:50;101102.09;;;9.55;38.88
35248;BME280;21380;52.194;20.520;2024-01-11T08:21:16;101083.88;;;9.52;38.13
35248;BME280;21380;52.194;20.520;2024-01-11T08:23:41;101094.38;;;9.55;38.54
35248;BME280;21380;52.194;20.520;2024-01-11T08:26:13;101089.31;;;9.57;38.69
35248;BME280;21380;52.194;20.520;2024-01-11T08:28:39;101089.38;;;9.58;38.10
35248;BME280;21380;52.194;20.520;2024-01-11T08:31:06;101091.94;;;9.58;38.43
35248;BME280;21380;52.194;20.520;2024-01-11T08:33:32;101101.47;;;9.60;38.76
35248;BME280;21380;52.194;20.520;2024-01-11T08:35:58;101110.06;;;9.60;38.37
35248;BME280;21380;52.194;20.520;2024-01-11T08:38:24;101103.25;;;9.61;38.41
35248;BME280;21380;52.194;20.520;2024-01-11T08:40:51;101098.09;;;9.61;38.24
35248;BME280;21380;52.194;20.520;2024-01-11T08:43:17;101104.91;;;9.60;38.74
35248;BME280;21380;52.194;20.520;2024-01-11T08:45:43;101089.31;;;9.57;38.44
35248;BME280;21380;52.194;20.520;2024-01-11T08:48:13;101090.19;;;9.57;39.18
35248;BME280;21380;52.194;20.520;2024-01-11T08:50:39;101098.16;;;9.62;38.88
35248;BME280;21380;52.194;20.520;2024-01-11T08:53:05;101097.38;;;9.63;38.52
35248;BME280;21380;52.194;20.520;2024-01-11T08:55:31;101091.09;;;9.58;38.74
35248;BME280;21380;52.194;20.520;2024-01-11T08:57:57;101101.63;;;9.63;38.77
35248;BME280;21380;52.194;20.520;2024-01-11T09:00:23;101098.16;;;9.62;39.22
35248;BME280;21380;52.194;20.520;2024-01-11T09:02:48;101098.16;;;9.62;39.22
35248;BME280;21380;52.194;20.520;2024-01-11T09:05:15;101105.75;;;9.59;38.99
35248;BME280;21380;52.194;20.520;2024-01-11T09:07:41;101107.41;;;9.58;38.77
35248;BME280;21380;52.194;20.520;2024-01-11T09:10:11;101111.91;;;9.63;39.12
35248;BME280;21380;52.194;20.520;2024-01-11T09:12:38;101105.97;;;9.64;38.55
35248;BME280;21380;52.194;20.520;2024-01-11T09:15:04;101096.56;;;9.64;39.13
35248;BME280;21380;52.194;20.520;2024-01-11T09:17:30;101098.25;;;9.64;39.29
35248;BME280;21380;52.194;20.520;2024-01-11T09:19:56;101098.44;;;9.67;38.57
35248;BME280;21380;52.194;20.520;2024-01-11T09:22:22;101092.38;;;9.66;39.00
35248;BME280;21380;52.194;20.520;2024-01-11T09:24:48;101073.38;;;9.64;39.17
35248;BME280;21380;52.194;20.520;2024-01-11T09:27:14;101080.47;;;9.68;38.81
35248;BME280;21380;52.194;20.520;2024-01-11T09:29:43;101075.38;;;9.70;38.55
35248;BME280;21380;52.194;20.520;2024-01-11T09:32:09;101070.09;;;9.67;39.18
35248;BME280;21380;52.194;20.520;2024-01-11T09:34:35;101053.72;;;9.66;39.10
35248;BME280;21380;52.194;20.520;2024-01-11T09:37:01;101059.22;;;9.72;39.35
35248;BME280;21380;52.194;20.520;2024-01-11T09:39:28;101056.75;;;9.74;38.88
35248;BME280;21380;52.194;20.520;2024-01-11T09:42:07;101060.13;;;9.73;39.10
35248;BME280;21380;52.194;20.520;2024-01-11T09:44:36;101063.50;;;9.72;39.62
35248;BME280;21380;52.194;20.520;2024-01-11T09:47:10;101066.31;;;9.77;39.05
35248;BME280;21380;52.194;20.520;2024-01-11T09:49:36;101055.91;;;9.75;39.77
35248;BME280;21380;52.194;20.520;2024-01-11T09:52:04;101053.53;;;9.78;39.46
35248;BME280;21380;52.194;20.520;2024-01-11T09:54:30;101045.00;;;9.79;39.35
35248;BME280;21380;52.194;20.520;2024-01-11T09:56:58;101036.28;;;9.77;39.09
35248;BME280;21380;52.194;20.520;2024-01-11T09:59:26;101045.88;;;9.80;39.43
35248;BME280;21380;52.194;20.520;2024-01-11T10:01:52;101045.94;;;9.81;39.84
35248;BME280;21380;52.194;20.520;2024-01-11T10:04:18;101038.06;;;9.78;39.04
35248;BME280;21380;52.194;20.520;2024-01-11T10:06:45;101029.69;;;9.82;38.90
35248;BME280;21380;52.194;20.520;2024-01-11T10:09:11;101020.91;;;9.79;39.43
35248;BME280;21380;52.194;20.520;2024-01-11T10:11:38;101019.38;;;9.82;39.74
35248;BME280;21380;52.194;20.520;2024-01-11T10:14:04;101018.41;;;9.80;39.58
35248;BME280;21380;52.194;20.520;2024-01-11T10:16:30;101013.28;;;9.80;38.96
35248;BME280;21380;52.194;20.520;2024-01-11T10:18:57;100995.06;;;9.77;39.18
35248;BME280;21380;52.194;20.520;2024-01-11T10:21:23;101002.13;;;9.81;39.39
35248;BME280;21380;52.194;20.520;2024-01-11T10:23:50;101000.38;;;9.80;39.42
35248;BME280;21380;52.194;20.520;2024-01-11T10:26:17;100989.25;;;9.81;39.44
35248;BME280;21380;52.194;20.520;2024-01-11T10:28:46;100989.09;;;9.78;38.99
35248;BME280;21380;52.194;20.520;2024-01-11T10:31:13;101000.47;;;9.82;39.30
35248;BME280;21380;52.194;20.520;2024-01-11T10:33:43;100995.13;;;9.79;39.29
35248;BME280;21380;52.194;20.520;2024-01-11T10:36:11;101003.03;;;9.82;38.99
35248;BME280;21380;52.194;20.520;2024-01-11T10:38:39;101004.81;;;9.83;39.84
35248;BME280;21380;52.194;20.520;2024-01-11T10:41:06;101005.69;;;9.83;39.07
35248;BME280;21380;52.194;20.520;2024-01-11T10:43:36;101010.84;;;9.83;39.16
35248;BME280;21380;52.194;20.520;2024-01-11T10:46:03;100987.50;;;9.80;39.73
35248;BME280;21380;52.194;20.520;2024-01-11T10:48:35;100989.34;;;9.83;39.98
35248;BME280;21380;52.194;20.520;2024-01-11T10:51:05;101008.25;;;9.83;39.52
35248;BME280;21380;52.194;20.520;2024-01-11T10:53:46;101004.72;;;9.81;39.44
35248;BME280;21380;52.194;20.520;2024-01-11T10:56:16;101005.75;;;9.85;39.76
35248;BME280;21380;52.194;20.520;2024-01-11T10:58:43;101003.19;;;9.85;40.01
35248;BME280;21380;52.194;20.520;2024-01-11T11:01:11;101007.53;;;9.86;39.63
35248;BME280;21380;52.194;20.520;2024-01-11T11:03:38;100995.38;;;9.83;39.78
35248;BME280;21380;52.194;20.520;2024-01-11T11:06:06;100998.94;;;9.85;39.30
35248;BME280;21380;52.194;20.520;2024-01-11T11:08:42;100985.78;;;9.81;39.33
35248;BME280;21380;52.194;20.520;2024-01-11T11:11:09;100981.50;;;9.81;39.77
35248;BME280;21380;52.194;20.520;2024-01-11T11:13:35;100972.72;;;9.78;39.27
35248;BME280;21380;52.194;20.520;2024-01-11T11:16:02;100960.03;;;9.81;39.79
35248;BME280;21380;52.194;20.520;2024-01-11T11:18:35;100963.72;;;9.86;39.67
35248;BME280;21380;52.194;20.520;2024-01-11T11:21:09;100966.22;;;9.84;39.48
35248;BME280;21380;52.194;20.520;2024-01-11T11:23:36;100955.13;;;9.85;39.74
35248;BME280;21380;52.194;20.520;2024-01-11T11:26:05;100942.06;;;9.82;39.44
35248;BME280;21380;52.194;20.520;2024-01-11T11:28:32;100950.78;;;9.84;39.63
35248;BME280;21380;52.194;20.520;2024-01-11T11:31:02;100939.66;;;9.85;39.93
35248;BME280;21380;52.194;20.520;2024-01-11T11:33:28;100945.53;;;9.83;39.71
35248;BME280;21380;52.194;20.520;2024-01-11T11:35:57;100937.97;;;9.86;40.00
35248;BME280;21380;52.194;20.520;2024-01-11T11:38:29;100925.66;;;9.80;39.75
35248;BME280;21380;52.194;20.520;2024-01-11T11:40:58;100923.22;;;9.83;39.82
35248;BME280;21380;52.194;20.520;2024-01-11T11:43:26;100922.19;;;9.80;39.94
35248;BME280;21380;52.194;20.520;2024-01-11T11:45:53;100922.34;;;9.83;40.44
35248;BME280;21380;52.194;20.520;2024-01-11T11:51:15;100930.94;;;9.83;39.73
35248;BME280;21380;52.194;20.520;2024-01-11T11:53:42;100921.38;;;9.81;39.82
35248;BME280;21380;52.194;20.520;2024-01-11T11:56:09;100923.28;;;9.85;39.72
35248;BME280;21380;52.194;20.520;2024-01-11T11:58:37;100917.34;;;9.86;40.31
35248;BME280;21380;52.194;20.520;2024-01-11T12:01:03;100904.22;;;9.81;39.86
35248;BME280;21380;52.194;20.520;2024-01-11T12:03:34;100900.16;;;9.86;40.24
35248;BME280;21380;52.194;20.520;2024-01-11T12:06:04;100905.44;;;9.88;40.23
35248;BME280;21380;52.194;20.520;2024-01-11T12:08:31;100919.13;;;9.87;40.15
35248;BME280;21380;52.194;20.520;2024-01-11T12:10:57;100917.28;;;9.84;40.45
35248;BME280;21380;52.194;20.520;2024-01-11T12:13:24;100920.16;;;9.90;40.11
35248;BME280;21380;52.194;20.520;2024-01-11T12:15:50;100914.09;;;9.90;39.90
35248;BME280;21380;52.194;20.520;2024-01-11T12:18:16;100908.81;;;9.87;40.53
35248;BME280;21380;52.194;20.520;2024-01-11T12:20:43;100913.38;;;9.93;40.50
35248;BME280;21380;52.194;20.520;2024-01-11T12:23:09;100911.63;;;9.92;40.41
35248;BME280;21380;52.194;20.520;2024-01-11T12:25:36;100912.56;;;9.94;40.43
35248;BME280;21380;52.194;20.520;2024-01-11T12:28:02;100903.00;;;9.91;39.76
35248;BME280;21380;52.194;20.520;2024-01-11T12:30:28;100901.47;;;9.95;40.63
35248;BME280;21380;52.194;20.520;2024-01-11T12:32:58;100902.19;;;9.92;40.06
35248;BME280;21380;52.194;20.520;2024-01-11T12:35:27;100906.63;;;9.95;40.10
35248;BME280;21380;52.194;20.520;2024-01-11T12:38:02;100912.75;;;9.97;40.37
35248;BME280;21380;52.194;20.520;2024-01-11T12:40:35;100910.16;;;9.97;40.32
35248;BME280;21380;52.194;20.520;2024-01-11T12:43:04;100903.91;;;9.92;41.29
35248;BME280;21380;52.194;20.520;2024-01-11T12:45:30;100906.53;;;9.93;41.24
35248;BME280;21380;52.194;20.520;2024-01-11T12:47:59;100911.03;;;9.97;40.76
35248;BME280;21380;52.194;20.520;2024-01-11T12:50:26;100904.09;;;9.96;40.43